sensor_id;sensor_type;location;lat;lon;timestamp;P1;durP1;ratioP1;P2;durP2;ratioP2
23146;SDS011;11742;53.532;-1.478;2023-12-29T00:02:20;10.68;;;3.83;;
23146;SDS011;11742;53.532;-1.478;2023-12-29T00:05:04;12.57;;;3.15;;
23146;SDS011;11742;53.532;-1.478;2023-12-29T00:07:49;11.02;;;3.20;;
23146;SDS011;11742;53.532;-1.478;2023-12-29T00:10:33;9.10;;;3.08;;
23146;SDS011;11742;53.532;-1.478;2023-12-29T00:13:17;11.75;;;3.13;;
23146;SDS011;11742;53.532;-1.478;2023-12-29T00:16:06;10.80;;;4.07;;
23146;SDS011;11742;53.532;-1.478;2023-12-29T00:18:50;19.83;;;5.00;;
23146;SDS011;11742;53.532;-1.478;2023-12-29T00:21:35;13.95;;;4.15;;
23146;SDS011;11742;53.532;-1.478;2023-12-29T00:24:20;18.50;;;4.93;;
23146;SDS011;11742;53.532;-1.478;2023-12-29T00:27:04;18.42;;;5.10;;
23146;SDS011;11742;53.532;-1.478;2023-12-29T00:29:49;22.83;;;5.93;;
23146;SDS011;11742;53.532;-1.478;2023-12-29T00:32:33;19.95;;;5.93;;
23146;SDS011;11742;53.532;-1.478;2023-12-29T00:35:17;20.85;;;6.05;;
23146;SDS011;11742;53.532;-1.478;2023-12-29T00:38:01;20.05;;;6.05;;
23146;SDS011;11742;53.532;-1.478;2023-12-29T00:40:45;23.83;;;6.13;;
23146;SDS011;11742;53.532;-1.478;2023-12-29T00:43:30;20.17;;;5.28;;
23146;SDS011;11742;53.532;-1.478;2023-12-29T00:46:15;20.80;;;5.30;;
23146;SDS011;11742;53.532;-1.478;2023-12-29T00:49:02;16.35;;;5.47;;
23146;SDS011;11742;53.532;-1.478;2023-12-29T00:51:47;21.02;;;5.57;;
23146;SDS011;11742;53.532;-1.478;2023-12-29T00:54:31;14.73;;;4.70;;
23146;SDS011;11742;53.532;-1.478;2023-12-29T00:57:16;14.40;;;4.55;;
23146;SDS011;11742;53.532;-1.478;2023-12-29T01:00:01;16.23;;;5.13;;
23146;SDS011;11742;53.532;-1.478;2023-12-29T01:02:45;15.90;;;5.13;;
23146;SDS011;11742;53.532;-1.478;2023-12-29T01:05:29;16.08;;;4.07;;
23146;SDS011;11742;53.532;-1.478;2023-12-29T01:08:13;16.10;;;4.28;;
23146;SDS011;11742;53.532;-1.478;2023-12-29T01:10:58;11.50;;;3.38;;
23146;SDS011;11742;53.532;-1.478;2023-12-29T01:13:42;8.75;;;2.70;;
23146;SDS011;11742;53.532;-1.478;2023-12-29T01:16:26;11.88;;;3.40;;
23146;SDS011;11742;53.532;-1.478;2023-12-29T01:19:11;8.82;;;2.60;;
23146;SDS011;11742;53.532;-1.478;2023-12-29T01:21:55;15.38;;;3.08;;
23146;SDS011;11742;53.532;-1.478;2023-12-29T01:24:39;11.52;;;2.50;;
23146;SDS011;11742;53.532;-1.478;2023-12-29T01:27:23;11.13;;;2.72;;
23146;SDS011;11742;53.532;-1.478;2023-12-29T01:30:07;7.60;;;2.40;;
23146;SDS011;11742;53.532;-1.478;2023-12-29T01:32:52;6.80;;;2.30;;
23146;SDS011;11742;53.532;-1.478;2023-12-29T01:35:37;8.77;;;2.00;;
23146;SDS011;11742;53.532;-1.478;2023-12-29T01:38:22;8.57;;;2.22;;
23146;SDS011;11742;53.532;-1.478;2023-12-29T01:41:06;9.85;;;2.10;;
23146;SDS011;11742;53.532;-1.478;2023-12-29T01:46:40;14.35;;;2.83;;
23146;SDS011;11742;53.532;-1.478;2023-12-29T01:49:25;8.60;;;2.13;;
23146;SDS011;11742;53.532;-1.478;2023-12-29T01:52:09;7.28;;;2.00;;
23146;SDS011;11742;53.532;-1.478;2023-12-29T01:54:54;8.13;;;1.95;;
23146;SDS011;11742;53.532;-1.478;2023-12-29T01:57:38;9.60;;;2.03;;
23146;SDS011;11742;53.532;-1.478;2023-12-29T02:00:22;7.18;;;2.03;;
23146;SDS011;11742;53.532;-1.478;2023-12-29T02:03:07;7.35;;;1.90;;
23146;SDS011;11742;53.532;-1.478;2023-12-29T02:05:51;5.57;;;1.67;;
23146;SDS011;11742;53.532;-1.478;2023-12-29T02:08:38;8.52;;;2.17;;
23146;SDS011;11742;53.532;-1.478;2023-12-29T02:11:24;5.97;;;1.50;;
23146;SDS011;11742;53.532;-1.478;2023-12-29T02:14:09;6.63;;;1.80;;
23146;SDS011;11742;53.532;-1.478;2023-12-29T02:20:09;5.07;;;1.55;;
23146;SDS011;11742;53.532;-1.478;2023-12-29T02:22:55;9.45;;;1.90;;
23146;SDS011;11742;53.532;-1.478;2023-12-29T02:25:39;4.85;;;1.33;;
23146;SDS011;11742;53.532;-1.478;2023-12-29T02:28:24;8.25;;;1.35;;
23146;SDS011;11742;53.532;-1.478;2023-12-29T02:31:13;5.85;;;1.77;;
23146;SDS011;11742;53.532;-1.478;2023-12-29T02:34:02;6.43;;;1.88;;
23146;SDS011;11742;53.532;-1.478;2023-12-29T02:36:50;7.60;;;1.60;;
23146;SDS011;11742;53.532;-1.478;2023-12-29T02:39:35;8.10;;;1.90;;
23146;SDS011;11742;53.532;-1.478;2023-12-29T02:42:20;5.38;;;1.30;;
23146;SDS011;11742;53.532;-1.478;2023-12-29T02:45:05;3.90;;;1.10;;
23146;SDS011;11742;53.532;-1.478;2023-12-29T02:47:49;3.08;;;1.02;;
23146;SDS011;11742;53.532;-1.478;2023-12-29T02:50:34;5.13;;;1.45;;
23146;SDS011;11742;53.532;-1.478;2023-12-29T02:53:18;4.10;;;1.88;;
23146;SDS011;11742;53.532;-1.478;2023-12-29T02:56:03;5.30;;;1.17;;
23146;SDS011;11742;53.532;-1.478;2023-12-29T02:58:48;6.57;;;1.70;;
23146;SDS011;11742;53.532;-1.478;2023-12-29T03:01:32;2.60;;;1.08;;
23146;SDS011;11742;53.532;-1.478;2023-12-29T03:04:16;6.18;;;1.33;;
23146;SDS011;11742;53.532;-1.478;2023-12-29T03:07:00;4.60;;;1.38;;
23146;SDS011;11742;53.532;-1.478;2023-12-29T03:09:44;12.35;;;2.50;;
23146;SDS011;11742;53.532;-1.478;2023-12-29T03:12:28;5.90;;;1.40;;
23146;SDS011;11742;53.532;-1.478;2023-12-29T03:15:14;5.65;;;1.35;;
23146;SDS011;11742;53.532;-1.478;2023-12-29T03:17:59;4.95;;;2.03;;
23146;SDS011;11742;53.532;-1.478;2023-12-29T03:20:43;5.38;;;1.15;;
23146;SDS011;11742;53.532;-1.478;2023-12-29T03:23:28;7.63;;;1.30;;
23146;SDS011;11742;53.532;-1.478;2023-12-29T03:26:12;4.82;;;1.23;;
23146;SDS011;11742;53.532;-1.478;2023-12-29T03:28:56;4.22;;;1.35;;
23146;SDS011;11742;53.532;-1.478;2023-12-29T03:31:40;6.40;;;1.05;;
23146;SDS011;11742;53.532;-1.478;2023-12-29T03:34:24;5.85;;;1.45;;
23146;SDS011;11742;53.532;-1.478;2023-12-29T03:37:09;5.65;;;1.20;;
23146;SDS011;11742;53.532;-1.478;2023-12-29T03:39:53;4.65;;;1.17;;
23146;SDS011;11742;53.532;-1.478;2023-12-29T03:42:37;4.57;;;1.30;;
23146;SDS011;11742;53.532;-1.478;2023-12-29T03:45:23;4.88;;;1.20;;
23146;SDS011;11742;53.532;-1.478;2023-12-29T03:48:07;3.22;;;1.33;;
23146;SDS011;11742;53.532;-1.478;2023-12-29T03:50:52;6.55;;;2.22;;
23146;SDS011;11742;53.532;-1.478;2023-12-29T03:53:36;8.20;;;1.38;;
23146;SDS011;11742;53.532;-1.478;2023-12-29T03:56:20;5.10;;;1.17;;
23146;SDS011;11742;53.532;-1.478;2023-12-29T03:59:04;6.47;;;1.30;;
23146;SDS011;11742;53.532;-1.478;2023-12-29T04:01:49;8.55;;;1.75;;
23146;SDS011;11742;53.532;-1.478;2023-12-29T04:04:36;2.72;;;0.95;;
23146;SDS011;11742;53.532;-1.478;2023-12-29T04:07:22;4.45;;;1.45;;
23146;SDS011;11742;53.532;-1.478;2023-12-29T04:10:06;6.10;;;1.23;;
23146;SDS011;11742;53.532;-1.478;2023-12-29T04:12:52;7.95;;;1.40;;
23146;SDS011;11742;53.532;-1.478;2023-12-29T04:15:36;4.35;;;1.30;;
23146;SDS011;11742;53.532;-1.478;2023-12-29T04:18:20;8.05;;;1.70;;
23146;SDS011;11742;53.532;-1.478;2023-12-29T04:21:05;3.90;;;1.05;;
23146;SDS011;11742;53.532;-1.478;2023-12-29T04:23:52;5.88;;;1.52;;
23146;SDS011;11742;53.532;-1.478;2023-12-29T04:26:36;6.28;;;1.50;;
23146;SDS011;11742;53.532;-1.478;2023-12-29T04:29:20;7.30;;;1.42;;
23146;SDS011;11742;53.532;-1.478;2023-12-29T04:32:05;6.90;;;2.63;;
23146;SDS011;11742;53.532;-1.478;2023-12-29T04:34:50;6.20;;;1.67;;
23146;SDS011;11742;53.532;-1.478;2023-12-29T04:37:34;7.38;;;1.70;;
23146;SDS011;11742;53.532;-1.478;2023-12-29T04:40:18;4.85;;;1.17;;
23146;SDS011;11742;53.532;-1.478;2023-12-29T04:43:03;5.20;;;1.45;;
23146;SDS011;11742;53.532;-1.478;2023-12-29T04:45:48;6.40;;;1.50;;
23146;SDS011;11742;53.532;-1.478;2023-12-29T04:48:32;5.78;;;1.25;;
23146;SDS011;11742;53.532;-1.478;2023-12-29T04:51:16;6.80;;;1.73;;
23146;SDS011;11742;53.532;-1.478;2023-12-29T04:54:01;3.85;;;1.10;;
23146;SDS011;11742;53.532;-1.478;2023-12-29T04:56:46;7.82;;;1.38;;
23146;SDS011;11742;53.532;-1.478;2023-12-29T04:59:30;6.93;;;1.52;;
23146;SDS011;11742;53.532;-1.478;2023-12-29T05:02:14;7.18;;;1.45;;
23146;SDS011;11742;53.532;-1.478;2023-12-29T05:04:58;8.23;;;1.45;;
23146;SDS011;11742;53.532;-1.478;2023-12-29T05:07:42;8.68;;;1.30;;
23146;SDS011;11742;53.532;-1.478;2023-12-29T05:10:26;7.15;;;1.75;;
23146;SDS011;11742;53.532;-1.478;2023-12-29T05:13:11;6.40;;;1.15;;
23146;SDS011;11742;53.532;-1.478;2023-12-29T05:15:55;5.78;;;2.63;;
23146;SDS011;11742;53.532;-1.478;2023-12-29T05:18:39;5.65;;;1.35;;
23146;SDS011;11742;53.532;-1.478;2023-12-29T05:21:24;5.20;;;1.52;;
23146;SDS011;11742;53.532;-1.478;2023-12-29T05:24:09;8.07;;;1.63;;
23146;SDS011;11742;53.532;-1.478;2023-12-29T05:26:54;4.03;;;1.50;;
23146;SDS011;11742;53.532;-1.478;2023-12-29T05:29:38;6.03;;;1.35;;
23146;SDS011;11742;53.532;-1.478;2023-12-29T05:32:23;9.25;;;2.13;;
23146;SDS011;11742;53.532;-1.478;2023-12-29T05:35:07;4.93;;;1.35;;
23146;SDS011;11742;53.532;-1.478;2023-12-29T05:37:51;6.07;;;1.65;;
23146;SDS011;11742;53.532;-1.478;2023-12-29T05:40:35;5.93;;;1.67;;
23146;SDS011;11742;53.532;-1.478;2023-12-29T05:43:20;6.18;;;1.50;;
23146;SDS011;11742;53.532;-1.478;2023-12-29T05:46:09;3.47;;;1.17;;
23146;SDS011;11742;53.532;-1.478;2023-12-29T05:48:57;6.55;;;1.50;;
23146;SDS011;11742;53.532;-1.478;2023-12-29T05:51:42;3.92;;;1.38;;
23146;SDS011;11742;53.532;-1.478;2023-12-29T05:54:27;4.93;;;1.40;;
23146;SDS011;11742;53.532;-1.478;2023-12-29T05:57:12;6.65;;;1.20;;
23146;SDS011;11742;53.532;-1.478;2023-12-29T05:59:56;3.80;;;1.13;;
23146;SDS011;11742;53.532;-1.478;2023-12-29T06:02:41;6.72;;;1.67;;
23146;SDS011;11742;53.532;-1.478;2023-12-29T06:05:25;6.43;;;1.42;;
23146;SDS011;11742;53.532;-1.478;2023-12-29T06:08:10;6.07;;;1.15;;
23146;SDS011;11742;53.532;-1.478;2023-12-29T06:10:54;10.50;;;1.48;;
23146;SDS011;11742;53.532;-1.478;2023-12-29T06:13:38;6.53;;;1.35;;
23146;SDS011;11742;53.532;-1.478;2023-12-29T06:16:22;10.32;;;1.60;;
23146;SDS011;11742;53.532;-1.478;2023-12-29T06:19:08;6.45;;;1.63;;
23146;SDS011;11742;53.532;-1.478;2023-12-29T06:21:53;5.55;;;1.27;;
23146;SDS011;11742;53.532;-1.478;2023-12-29T06:24:37;4.32;;;1.40;;
23146;SDS011;11742;53.532;-1.478;2023-12-29T06:27:22;5.07;;;1.10;;
23146;SDS011;11742;53.532;-1.478;2023-12-29T06:30:07;7.82;;;1.50;;
23146;SDS011;11742;53.532;-1.478;2023-12-29T06:32:52;5.53;;;1.45;;
23146;SDS011;11742;53.532;-1.478;2023-12-29T06:35:36;6.22;;;1.73;;
23146;SDS011;11742;53.532;-1.478;2023-12-29T06:38:22;7.07;;;1.65;;
23146;SDS011;11742;53.532;-1.478;2023-12-29T06:41:07;6.95;;;1.30;;
23146;SDS011;11742;53.532;-1.478;2023-12-29T06:43:52;6.82;;;1.50;;
23146;SDS011;11742;53.532;-1.478;2023-12-29T06:46:37;5.60;;;1.20;;
23146;SDS011;11742;53.532;-1.478;2023-12-29T06:49:21;7.05;;;1.90;;
23146;SDS011;11742;53.532;-1.478;2023-12-29T06:52:06;4.50;;;1.10;;
23146;SDS011;11742;53.532;-1.478;2023-12-29T06:54:50;4.57;;;1.20;;
23146;SDS011;11742;53.532;-1.478;2023-12-29T06:57:34;4.13;;;1.35;;
23146;SDS011;11742;53.532;-1.478;2023-12-29T07:00:19;8.23;;;1.88;;
23146;SDS011;11742;53.532;-1.478;2023-12-29T07:03:03;3.80;;;1.30;;
23146;SDS011;11742;53.532;-1.478;2023-12-29T07:05:48;7.20;;;1.67;;
23146;SDS011;11742;53.532;-1.478;2023-12-29T07:08:32;6.65;;;1.90;;
23146;SDS011;11742;53.532;-1.478;2023-12-29T07:11:17;5.70;;;1.58;;
23146;SDS011;11742;53.532;-1.478;2023-12-29T07:14:01;5.65;;;1.67;;
23146;SDS011;11742;53.532;-1.478;2023-12-29T07:16:46;6.40;;;1.27;;
23146;SDS011;11742;53.532;-1.478;2023-12-29T07:19:31;8.15;;;1.40;;
23146;SDS011;11742;53.532;-1.478;2023-12-29T07:22:20;8.60;;;1.20;;
23146;SDS011;11742;53.532;-1.478;2023-12-29T07:25:04;7.25;;;1.83;;
23146;SDS011;11742;53.532;-1.478;2023-12-29T07:27:49;5.53;;;1.30;;
23146;SDS011;11742;53.532;-1.478;2023-12-29T07:30:33;8.20;;;1.75;;
23146;SDS011;11742;53.532;-1.478;2023-12-29T07:33:17;8.15;;;1.42;;
23146;SDS011;11742;53.532;-1.478;2023-12-29T07:36:01;6.72;;;1.20;;
23146;SDS011;11742;53.532;-1.478;2023-12-29T07:38:46;5.55;;;1.50;;
23146;SDS011;11742;53.532;-1.478;2023-12-29T07:41:30;6.95;;;1.77;;
23146;SDS011;11742;53.532;-1.478;2023-12-29T07:44:14;5.25;;;1.30;;
23146;SDS011;11742;53.532;-1.478;2023-12-29T07:46:59;3.85;;;1.00;;
23146;SDS011;11742;53.532;-1.478;2023-12-29T07:49:43;5.65;;;1.98;;
23146;SDS011;11742;53.532;-1.478;2023-12-29T07:52:28;8.85;;;1.25;;
23146;SDS011;11742;53.532;-1.478;2023-12-29T07:55:13;4.53;;;1.52;;
23146;SDS011;11742;53.532;-1.478;2023-12-29T07:57:59;9.30;;;1.30;;
23146;SDS011;11742;53.532;-1.478;2023-12-29T08:00:44;8.50;;;1.88;;
23146;SDS011;11742;53.532;-1.478;2023-12-29T08:03:29;2.92;;;1.15;;
23146;SDS011;11742;53.532;-1.478;2023-12-29T08:06:13;2.70;;;1.30;;
23146;SDS011;11742;53.532;-1.478;2023-12-29T08:08:58;6.57;;;1.02;;
23146;SDS011;11742;53.532;-1.478;2023-12-29T08:11:42;6.05;;;1.10;;
23146;SDS011;11742;53.532;-1.478;2023-12-29T08:14:26;5.22;;;1.27;;
23146;SDS011;11742;53.532;-1.478;2023-12-29T08:17:11;7.63;;;1.45;;
23146;SDS011;11742;53.532;-1.478;2023-12-29T08:19:56;3.47;;;1.48;;
23146;SDS011;11742;53.532;-1.478;2023-12-29T08:22:41;7.15;;;2.22;;
23146;SDS011;11742;53.532;-1.478;2023-12-29T08:25:26;3.72;;;1.23;;
23146;SDS011;11742;53.532;-1.478;2023-12-29T08:28:10;3.67;;;1.17;;
23146;SDS011;11742;53.532;-1.478;2023-12-29T08:30:54;3.08;;;1.02;;
23146;SDS011;11742;53.532;-1.478;2023-12-29T08:33:39;9.18;;;1.20;;
23146;SDS011;11742;53.532;-1.478;2023-12-29T08:36:23;1.90;;;0.95;;
23146;SDS011;11742;53.532;-1.478;2023-12-29T08:39:07;6.60;;;1.63;;
23146;SDS011;11742;53.532;-1.478;2023-12-29T08:41:53;3.90;;;1.08;;
23146;SDS011;11742;53.532;-1.478;2023-12-29T08:44:37;8.95;;;1.13;;
23146;SDS011;11742;53.532;-1.478;2023-12-29T08:47:21;1.75;;;0.90;;
23146;SDS011;11742;53.532;-1.478;2023-12-29T08:50:05;5.57;;;1.00;;
23146;SDS011;11742;53.532;-1.478;2023-12-29T08:52:50;6.75;;;1.40;;
23146;SDS011;11742;53.532;-1.478;2023-12-29T08:55:34;3.38;;;1.10;;
23146;SDS011;11742;53.532;-1.478;2023-12-29T08:58:18;4.75;;;0.82;;
23146;SDS011;11742;53.532;-1.478;2023-12-29T09:01:02;6.07;;;1.00;;
23146;SDS011;11742;53.532;-1.478;2023-12-29T09:03:47;5.82;;;1.08;;
23146;SDS011;11742;53.532;-1.478;2023-12-29T09:06:31;8.35;;;1.33;;
23146;SDS011;11742;53.532;-1.478;2023-12-29T09:09:16;4.65;;;1.08;;
23146;SDS011;11742;53.532;-1.478;2023-12-29T09:12:00;3.05;;;0.90;;
23146;SDS011;11742;53.532;-1.478;2023-12-29T09:14:45;3.08;;;0.95;;
23146;SDS011;11742;53.532;-1.478;2023-12-29T09:17:29;2.83;;;0.90;;
23146;SDS011;11742;53.532;-1.478;2023-12-29T09:20:14;5.63;;;1.42;;
23146;SDS011;11742;53.532;-1.478;2023-12-29T09:22:58;4.35;;;1.23;;
23146;SDS011;11742;53.532;-1.478;2023-12-29T09:25:43;3.25;;;0.82;;
23146;SDS011;11742;53.532;-1.478;2023-12-29T09:28:27;5.20;;;0.93;;
23146;SDS011;11742;53.532;-1.478;2023-12-29T09:31:11;5.95;;;1.10;;
23146;SDS011;11742;53.532;-1.478;2023-12-29T09:33:56;3.90;;;1.00;;
23146;SDS011;11742;53.532;-1.478;2023-12-29T09:36:40;5.60;;;1.08;;
23146;SDS011;11742;53.532;-1.478;2023-12-29T09:39:24;4.40;;;0.90;;
23146;SDS011;11742;53.532;-1.478;2023-12-29T09:42:09;6.80;;;1.10;;
23146;SDS011;11742;53.532;-1.478;2023-12-29T09:45:10;4.32;;;1.05;;
23146;SDS011;11742;53.532;-1.478;2023-12-29T09:47:55;2.92;;;0.85;;
23146;SDS011;11742;53.532;-1.478;2023-12-29T09:50:42;3.40;;;1.52;;
23146;SDS011;11742;53.532;-1.478;2023-12-29T09:53:28;3.78;;;1.60;;
23146;SDS011;11742;53.532;-1.478;2023-12-29T09:56:13;4.68;;;2.00;;
23146;SDS011;11742;53.532;-1.478;2023-12-29T09:58:59;2.90;;;0.85;;
23146;SDS011;11742;53.532;-1.478;2023-12-29T10:01:44;2.88;;;1.33;;
23146;SDS011;11742;53.532;-1.478;2023-12-29T10:04:30;3.33;;;1.17;;
23146;SDS011;11742;53.532;-1.478;2023-12-29T10:07:20;4.15;;;1.15;;
23146;SDS011;11742;53.532;-1.478;2023-12-29T10:10:09;4.75;;;1.23;;
23146;SDS011;11742;53.532;-1.478;2023-12-29T10:13:00;2.90;;;1.13;;
23146;SDS011;11742;53.532;-1.478;2023-12-29T10:15:47;3.15;;;1.10;;
23146;SDS011;11742;53.532;-1.478;2023-12-29T10:18:42;2.65;;;0.90;;
23146;SDS011;11742;53.532;-1.478;2023-12-29T10:25:02;3.55;;;1.20;;
23146;SDS011;11742;53.532;-1.478;2023-12-29T10:27:46;6.50;;;1.20;;
23146;SDS011;11742;53.532;-1.478;2023-12-29T10:30:31;3.03;;;1.15;;
23146;SDS011;11742;53.532;-1.478;2023-12-29T10:33:19;5.22;;;1.08;;
23146;SDS011;11742;53.532;-1.478;2023-12-29T10:36:08;2.80;;;1.23;;
23146;SDS011;11742;53.532;-1.478;2023-12-29T10:39:15;5.55;;;1.20;;
23146;SDS011;11742;53.532;-1.478;2023-12-29T10:42:07;4.30;;;0.90;;
23146;SDS011;11742;53.532;-1.478;2023-12-29T10:45:09;4.03;;;1.20;;
23146;SDS011;11742;53.532;-1.478;2023-12-29T10:47:57;2.85;;;1.15;;
23146;SDS011;11742;53.532;-1.478;2023-12-29T10:50:46;3.67;;;1.13;;
23146;SDS011;11742;53.532;-1.478;2023-12-29T10:53:31;4.18;;;1.25;;
23146;SDS011;11742;53.532;-1.478;2023-12-29T10:56:19;2.03;;;1.20;;
23146;SDS011;11742;53.532;-1.478;2023-12-29T10:59:04;4.85;;;1.17;;
23146;SDS011;11742;53.532;-1.478;2023-12-29T11:01:49;4.50;;;1.20;;
23146;SDS011;11742;53.532;-1.478;2023-12-29T11:04:35;8.40;;;2.58;;
23146;SDS011;11742;53.532;-1.478;2023-12-29T11:07:30;4.05;;;1.20;;
23146;SDS011;11742;53.532;-1.478;2023-12-29T11:10:16;3.38;;;1.23;;
23146;SDS011;11742;53.532;-1.478;2023-12-29T11:13:01;5.57;;;1.20;;
23146;SDS011;11742;53.532;-1.478;2023-12-29T11:15:45;2.58;;;0.90;;
23146;SDS011;11742;53.532;-1.478;2023-12-29T11:18:30;2.63;;;1.05;;
23146;SDS011;11742;53.532;-1.478;2023-12-29T11:21:17;2.50;;;0.98;;
23146;SDS011;11742;53.532;-1.478;2023-12-29T11:24:05;4.30;;;1.00;;
23146;SDS011;11742;53.532;-1.478;2023-12-29T11:26:50;2.72;;;0.98;;
23146;SDS011;11742;53.532;-1.478;2023-12-29T11:29:36;7.25;;;1.45;;
23146;SDS011;11742;53.532;-1.478;2023-12-29T11:32:25;3.90;;;1.23;;
23146;SDS011;11742;53.532;-1.478;2023-12-29T11:35:18;5.10;;;1.88;;
23146;SDS011;11742;53.532;-1.478;2023-12-29T11:38:21;4.10;;;1.23;;
23146;SDS011;11742;53.532;-1.478;2023-12-29T11:44:26;3.22;;;1.08;;
23146;SDS011;11742;53.532;-1.478;2023-12-29T11:50:34;3.85;;;1.08;;
23146;SDS011;11742;53.532;-1.478;2023-12-29T11:53:30;2.95;;;1.20;;
23146;SDS011;11742;53.532;-1.478;2023-12-29T11:56:16;5.78;;;2.00;;
23146;SDS011;11742;53.532;-1.478;2023-12-29T12:02:02;7.45;;;2.35;;
23146;SDS011;11742;53.532;-1.478;2023-12-29T12:04:49;5.10;;;1.80;;
23146;SDS011;11742;53.532;-1.478;2023-12-29T12:13:03;5.90;;;1.60;;
23146;SDS011;11742;53.532;-1.478;2023-12-29T12:15:48;5.47;;;1.85;;
23146;SDS011;11742;53.532;-1.478;2023-12-29T12:18:32;7.45;;;2.10;;
23146;SDS011;11742;53.532;-1.478;2023-12-29T12:21:17;5.60;;;2.03;;
23146;SDS011;11742;53.532;-1.478;2023-12-29T12:24:06;6.75;;;2.00;;
23146;SDS011;11742;53.532;-1.478;2023-12-29T12:26:51;9.32;;;2.05;;
23146;SDS011;11742;53.532;-1.478;2023-12-29T12:29:35;6.30;;;1.73;;
23146;SDS011;11742;53.532;-1.478;2023-12-29T12:32:19;5.63;;;1.98;;
23146;SDS011;11742;53.532;-1.478;2023-12-29T12:35:05;5.68;;;1.70;;
23146;SDS011;11742;53.532;-1.478;2023-12-29T12:38:12;5.63;;;1.63;;
23146;SDS011;11742;53.532;-1.478;2023-12-29T12:40:58;4.65;;;1.67;;
23146;SDS011;11742;53.532;-1.478;2023-12-29T12:44:11;6.38;;;1.70;;
23146;SDS011;11742;53.532;-1.478;2023-12-29T12:46:57;7.10;;;2.03;;
23146;SDS011;11742;53.532;-1.478;2023-12-29T12:49:45;4.00;;;1.35;;
23146;SDS011;11742;53.532;-1.478;2023-12-29T12:52:30;8.80;;;2.08;;
23146;SDS011;11742;53.532;-1.478;2023-12-29T12:55:16;5.80;;;1.98;;
23146;SDS011;11742;53.532;-1.478;2023-12-29T12:58:00;8.23;;;1.85;;
23146;SDS011;11742;53.532;-1.478;2023-12-29T13:00:45;8.10;;;2.13;;
23146;SDS011;11742;53.532;-1.478;2023-12-29T13:03:31;4.47;;;1.65;;
23146;SDS011;11742;53.532;-1.478;2023-12-29T13:06:16;7.00;;;1.70;;
23146;SDS011;11742;53.532;-1.478;2023-12-29T13:09:01;5.85;;;2.13;;
23146;SDS011;11742;53.532;-1.478;2023-12-29T13:11:50;4.60;;;1.38;;
23146;SDS011;11742;53.532;-1.478;2023-12-29T13:14:50;4.95;;;1.55;;
23146;SDS011;11742;53.532;-1.478;2023-12-29T13:17:35;5.88;;;2.05;;
23146;SDS011;11742;53.532;-1.478;2023-12-29T13:20:20;6.90;;;2.17;;
23146;SDS011;11742;53.532;-1.478;2023-12-29T13:23:04;17.42;;;3.72;;
23146;SDS011;11742;53.532;-1.478;2023-12-29T13:25:49;6.10;;;1.90;;
23146;SDS011;11742;53.532;-1.478;2023-12-29T13:28:40;8.65;;;2.50;;
23146;SDS011;11742;53.532;-1.478;2023-12-29T13:31:25;10.00;;;2.75;;
23146;SDS011;11742;53.532;-1.478;2023-12-29T13:34:14;6.55;;;2.10;;
23146;SDS011;11742;53.532;-1.478;2023-12-29T13:43:24;7.38;;;2.10;;
23146;SDS011;11742;53.532;-1.478;2023-12-29T13:46:12;7.60;;;1.98;;
23146;SDS011;11742;53.532;-1.478;2023-12-29T13:49:00;5.95;;;1.80;;
23146;SDS011;11742;53.532;-1.478;2023-12-29T13:51:46;7.15;;;1.65;;
23146;SDS011;11742;53.532;-1.478;2023-12-29T13:54:30;4.05;;;1.40;;
23146;SDS011;11742;53.532;-1.478;2023-12-29T13:57:35;5.60;;;1.50;;
23146;SDS011;11742;53.532;-1.478;2023-12-29T14:06:32;5.35;;;1.25;;
23146;SDS011;11742;53.532;-1.478;2023-12-29T14:09:25;6.63;;;1.92;;
23146;SDS011;11742;53.532;-1.478;2023-12-29T14:12:09;4.03;;;1.25;;
23146;SDS011;11742;53.532;-1.478;2023-12-29T14:14:54;5.90;;;1.45;;
23146;SDS011;11742;53.532;-1.478;2023-12-29T14:17:45;3.80;;;1.10;;
23146;SDS011;11742;53.532;-1.478;2023-12-29T14:20:33;4.55;;;1.42;;
23146;SDS011;11742;53.532;-1.478;2023-12-29T14:23:18;5.65;;;1.38;;
23146;SDS011;11742;53.532;-1.478;2023-12-29T14:26:03;7.25;;;1.27;;
23146;SDS011;11742;53.532;-1.478;2023-12-29T14:28:59;3.47;;;1.00;;
23146;SDS011;11742;53.532;-1.478;2023-12-29T14:31:44;2.88;;;1.00;;
23146;SDS011;11742;53.532;-1.478;2023-12-29T14:34:29;5.47;;;1.10;;
23146;SDS011;11742;53.532;-1.478;2023-12-29T14:37:13;4.28;;;0.85;;
23146;SDS011;11742;53.532;-1.478;2023-12-29T14:39:58;8.45;;;1.02;;
23146;SDS011;11742;53.532;-1.478;2023-12-29T14:42:42;3.85;;;0.93;;
23146;SDS011;11742;53.532;-1.478;2023-12-29T14:45:26;3.25;;;0.80;;
23146;SDS011;11742;53.532;-1.478;2023-12-29T14:48:13;6.63;;;1.08;;
23146;SDS011;11742;53.532;-1.478;2023-12-29T14:50:57;3.40;;;0.82;;
23146;SDS011;11742;53.532;-1.478;2023-12-29T14:53:43;2.05;;;0.70;;
23146;SDS011;11742;53.532;-1.478;2023-12-29T14:56:28;3.47;;;1.00;;
23146;SDS011;11742;53.532;-1.478;2023-12-29T14:59:13;5.50;;;1.13;;
23146;SDS011;11742;53.532;-1.478;2023-12-29T15:01:57;2.78;;;0.90;;
23146;SDS011;11742;53.532;-1.478;2023-12-29T15:04:42;2.58;;;0.82;;
23146;SDS011;11742;53.532;-1.478;2023-12-29T15:07:26;1.55;;;0.77;;
23146;SDS011;11742;53.532;-1.478;2023-12-29T15:10:14;2.35;;;0.77;;
23146;SDS011;11742;53.532;-1.478;2023-12-29T15:12:58;0.52;;;0.40;;
23146;SDS011;11742;53.532;-1.478;2023-12-29T15:15:43;0.93;;;0.55;;
23146;SDS011;11742;53.532;-1.478;2023-12-29T15:18:28;1.95;;;0.60;;
23146;SDS011;11742;53.532;-1.478;2023-12-29T15:21:13;3.83;;;1.15;;
23146;SDS011;11742;53.532;-1.478;2023-12-29T15:23:57;1.65;;;0.60;;
23146;SDS011;11742;53.532;-1.478;2023-12-29T15:26:42;1.10;;;0.60;;
23146;SDS011;11742;53.532;-1.478;2023-12-29T15:29:26;1.40;;;0.60;;
23146;SDS011;11742;53.532;-1.478;2023-12-29T15:32:15;0.85;;;0.43;;
23146;SDS011;11742;53.532;-1.478;2023-12-29T15:34:59;0.85;;;0.45;;
23146;SDS011;11742;53.532;-1.478;2023-12-29T15:37:43;0.73;;;0.47;;
23146;SDS011;11742;53.532;-1.478;2023-12-29T15:40:28;1.50;;;0.40;;
23146;SDS011;11742;53.532;-1.478;2023-12-29T15:43:12;0.88;;;0.40;;
23146;SDS011;11742;53.532;-1.478;2023-12-29T15:45:56;0.88;;;0.40;;
23146;SDS011;11742;53.532;-1.478;2023-12-29T15:48:41;0.68;;;0.50;;
23146;SDS011;11742;53.532;-1.478;2023-12-29T15:51:26;1.33;;;0.50;;
23146;SDS011;11742;53.532;-1.478;2023-12-29T15:54:10;0.30;;;0.30;;
23146;SDS011;11742;53.532;-1.478;2023-12-29T15:56:54;1.30;;;0.50;;
23146;SDS011;11742;53.532;-1.478;2023-12-29T15:59:39;1.33;;;0.40;;
23146;SDS011;11742;53.532;-1.478;2023-12-29T16:02:23;0.57;;;0.40;;
23146;SDS011;11742;53.532;-1.478;2023-12-29T16:05:08;0.70;;;0.60;;
23146;SDS011;11742;53.532;-1.478;2023-12-29T16:07:52;0.95;;;0.60;;
23146;SDS011;11742;53.532;-1.478;2023-12-29T16:10:37;0.77;;;0.50;;
23146;SDS011;11742;53.532;-1.478;2023-12-29T16:13:21;1.10;;;0.68;;
23146;SDS011;11742;53.532;-1.478;2023-12-29T16:16:05;0.88;;;0.57;;
23146;SDS011;11742;53.532;-1.478;2023-12-29T16:18:50;1.35;;;0.60;;
23146;SDS011;11742;53.532;-1.478;2023-12-29T16:21:37;0.52;;;0.50;;
23146;SDS011;11742;53.532;-1.478;2023-12-29T16:24:25;0.50;;;0.50;;
23146;SDS011;11742;53.532;-1.478;2023-12-29T16:27:10;0.57;;;0.50;;
23146;SDS011;11742;53.532;-1.478;2023-12-29T16:29:55;0.82;;;0.63;;
23146;SDS011;11742;53.532;-1.478;2023-12-29T16:32:39;0.70;;;0.60;;
23146;SDS011;11742;53.532;-1.478;2023-12-29T16:35:24;0.82;;;0.50;;
23146;SDS011;11742;53.532;-1.478;2023-12-29T16:38:08;2.83;;;1.33;;
23146;SDS011;11742;53.532;-1.478;2023-12-29T16:40:52;1.48;;;0.90;;
23146;SDS011;11742;53.532;-1.478;2023-12-29T16:43:37;2.10;;;1.35;;
23146;SDS011;11742;53.532;-1.478;2023-12-29T16:46:21;1.27;;;1.02;;
23146;SDS011;11742;53.532;-1.478;2023-12-29T16:49:05;2.95;;;0.77;;
23146;SDS011;11742;53.532;-1.478;2023-12-29T16:51:49;1.45;;;0.85;;
23146;SDS011;11742;53.532;-1.478;2023-12-29T16:54:34;1.20;;;1.10;;
23146;SDS011;11742;53.532;-1.478;2023-12-29T16:57:18;1.10;;;0.70;;
23146;SDS011;11742;53.532;-1.478;2023-12-29T17:00:02;1.73;;;0.80;;